createdAt,value
2023-04-27T00:01:24.647Z,9.24
2023-04-27T00:03:54.523Z,9.13
2023-04-27T00:06:23.239Z,9.34
2023-04-27T00:08:51.540Z,9.34
2023-04-27T00:11:19.887Z,9.42
2023-04-27T00:13:48.297Z,9.46
2023-04-27T00:16:16.597Z,9.46
2023-04-27T00:18:44.928Z,9.47
2023-04-27T00:21:14.659Z,9.48
2023-04-27T00:23:43.032Z,9.46
2023-04-27T00:26:11.657Z,9.49
2023-04-27T00:28:41.377Z,9.41
2023-04-27T00:31:09.718Z,9.61
2023-04-27T00:33:38.032Z,9.60
2023-04-27T00:36:07.627Z,9.58
2023-04-27T00:38:37.305Z,9.62
2023-04-27T00:41:08.950Z,9.45
2023-04-27T00:43:44.649Z,9.21
2023-04-27T00:46:15.667Z,9.38
2023-04-27T00:48:44.825Z,9.29
2023-04-27T00:51:13.210Z,9.04
2023-04-27T00:53:43.392Z,8.91
2023-04-27T00:56:12.105Z,8.76
2023-04-27T00:58:40.408Z,8.67
2023-04-27T01:01:08.904Z,8.49
2023-04-27T01:03:38.189Z,8.26
2023-04-27T01:06:08.509Z,8.22
2023-04-27T01:08:37.824Z,8.15
2023-04-27T01:11:07.504Z,8.22
2023-04-27T01:13:35.810Z,8.12
2023-04-27T01:16:04.181Z,8.14
2023-04-27T01:18:33.675Z,8.05
2023-04-27T01:21:02.258Z,8.08
2023-04-27T01:23:32.029Z,8.10
2023-04-27T01:26:00.317Z,8.17
2023-04-27T01:28:28.648Z,8.15
2023-04-27T01:30:57.470Z,8.14
2023-04-27T01:33:27.460Z,8.24
2023-04-27T01:35:55.848Z,8.27
2023-04-27T01:38:24.384Z,8.29
2023-04-27T01:40:55.221Z,8.23
2023-04-27T01:43:23.564Z,8.25
2023-04-27T01:45:51.861Z,8.18
2023-04-27T01:48:20.216Z,8.19
2023-04-27T01:50:48.496Z,8.15
2023-04-27T01:53:16.833Z,8.07
2023-04-27T01:55:45.149Z,8.28
2023-04-27T01:58:14.991Z,8.20
2023-04-27T02:00:43.580Z,8.11
2023-04-27T02:03:11.979Z,7.94
2023-04-27T02:05:40.355Z,7.87
2023-04-27T02:08:08.725Z,7.61
2023-04-27T02:10:37.956Z,7.22
2023-04-27T02:13:06.382Z,7.12
2023-04-27T02:15:37.059Z,6.71
2023-04-27T02:18:05.807Z,6.71
2023-04-27T02:20:34.543Z,6.65
2023-04-27T02:23:02.918Z,6.60
2023-04-27T02:25:31.311Z,6.54
2023-04-27T02:27:59.566Z,6.50
2023-04-27T02:30:28.609Z,6.32
2023-04-27T02:33:01.666Z,6.31
2023-04-27T02:35:30.060Z,6.30
2023-04-27T02:38:01.636Z,6.24
2023-04-27T02:40:29.937Z,6.31
2023-04-27T02:42:59.040Z,6.24
2023-04-27T02:45:28.548Z,6.36
2023-04-27T02:47:56.957Z,6.41
2023-04-27T02:50:26.564Z,6.47
2023-04-27T02:52:55.396Z,6.55
2023-04-27T02:55:23.657Z,6.66
2023-04-27T02:57:51.983Z,6.45
2023-04-27T03:00:20.671Z,6.46
2023-04-27T03:02:49.116Z,6.53
2023-04-27T03:05:17.613Z,6.55
2023-04-27T03:07:47.217Z,6.60
2023-04-27T03:10:15.564Z,6.37
2023-04-27T03:12:44.694Z,6.34
2023-04-27T03:15:13.123Z,6.33
2023-04-27T03:17:41.540Z,6.25
2023-04-27T03:20:12.234Z,6.18
2023-04-27T03:22:40.566Z,6.17
2023-04-27T03:25:10.931Z,6.21
2023-04-27T03:27:40.480Z,6.29
2023-04-27T03:30:10.881Z,6.27
2023-04-27T03:32:39.536Z,6.38
2023-04-27T03:35:09.789Z,6.28
2023-04-27T03:37:38.126Z,6.24
2023-04-27T03:40:10.080Z,6.23
2023-04-27T03:42:38.388Z,6.27
2023-04-27T03:45:08.427Z,6.33
2023-04-27T03:47:36.862Z,6.31
2023-04-27T03:50:06.060Z,6.27
2023-04-27T03:52:34.416Z,6.41
2023-04-27T03:55:02.900Z,6.48
2023-04-27T03:57:32.597Z,6.59
2023-04-27T04:00:01.211Z,6.59
2023-04-27T04:02:29.713Z,6.68
2023-04-27T04:04:59.170Z,6.69
2023-04-27T04:07:27.527Z,6.75
2023-04-27T04:09:55.871Z,6.71
2023-04-27T04:12:24.753Z,6.25
2023-04-27T04:14:54.406Z,6.84
2023-04-27T04:17:22.764Z,6.91
2023-04-27T04:19:51.087Z,7.13
2023-04-27T04:22:19.460Z,7.27
2023-04-27T04:24:47.996Z,7.35
2023-04-27T04:27:17.301Z,7.39
2023-04-27T04:29:45.781Z,7.48
2023-04-27T04:32:17.794Z,7.60
2023-04-27T04:34:50.701Z,7.69
2023-04-27T04:37:19.435Z,7.73
2023-04-27T04:39:47.723Z,7.78
2023-04-27T04:42:16.058Z,7.89
2023-04-27T04:44:45.429Z,7.86
2023-04-27T04:47:15.147Z,8.05
2023-04-27T04:49:43.513Z,7.98
2023-04-27T04:52:11.946Z,8.10
2023-04-27T04:54:40.246Z,8.10
2023-04-27T04:57:08.637Z,7.88
2023-04-27T04:59:37.063Z,7.73
2023-04-27T05:02:05.350Z,7.60
2023-04-27T05:04:35.255Z,7.27
2023-04-27T05:07:04.801Z,7.25
2023-04-27T05:09:33.148Z,7.16
2023-04-27T05:12:03.298Z,7.14
2023-04-27T05:14:31.581Z,7.12
2023-04-27T05:16:59.861Z,7.12
2023-04-27T05:19:31.045Z,7.30
2023-04-27T05:22:01.251Z,7.62
2023-04-27T05:24:29.573Z,7.86
2023-04-27T05:26:58.350Z,8.05
2023-04-27T05:29:28.415Z,8.25
2023-04-27T05:31:57.056Z,8.34
2023-04-27T05:34:25.583Z,8.48
2023-04-27T05:36:53.820Z,8.44
2023-04-27T05:39:23.425Z,8.39
2023-04-27T05:41:52.248Z,8.37
2023-04-27T05:44:20.536Z,8.53
2023-04-27T05:46:48.917Z,8.55
2023-04-27T05:49:17.202Z,8.56
2023-04-27T05:51:45.728Z,8.78
2023-04-27T05:54:14.073Z,8.81
2023-04-27T05:56:43.811Z,8.35
2023-04-27T05:59:12.381Z,8.14
2023-04-27T06:01:40.857Z,7.96
2023-04-27T06:04:09.483Z,7.94
2023-04-27T06:06:38.379Z,8.05
2023-04-27T06:09:07.174Z,8.08
2023-04-27T06:11:35.702Z,7.91
2023-04-27T06:14:05.379Z,8.01
2023-04-27T06:16:34.048Z,8.05
2023-04-27T06:19:02.965Z,7.95
2023-04-27T06:21:34.155Z,8.15
2023-04-27T06:24:02.767Z,8.20
2023-04-27T06:26:31.195Z,8.54
2023-04-27T06:28:59.567Z,8.72
2023-04-27T06:31:29.471Z,9.05
2023-04-27T06:33:57.848Z,8.77
2023-04-27T06:36:27.855Z,8.67
2023-04-27T06:38:56.617Z,8.56
2023-04-27T06:41:26.019Z,8.71
2023-04-27T06:43:56.282Z,8.42
2023-04-27T06:46:27.884Z,8.33
2023-04-27T06:48:56.330Z,8.52
2023-04-27T06:51:26.801Z,8.84
2023-04-27T06:53:57.307Z,9.25
2023-04-27T06:56:26.173Z,8.90
2023-04-27T06:58:54.526Z,8.75
2023-04-27T07:01:22.903Z,8.48
2023-04-27T07:03:52.758Z,8.52
2023-04-27T07:06:22.268Z,8.40
2023-04-27T07:08:50.578Z,8.40
2023-04-27T07:11:19.048Z,8.58
2023-04-27T07:13:47.400Z,8.59
2023-04-27T07:16:16.638Z,8.78
2023-04-27T07:18:45.517Z,8.88
2023-04-27T07:21:15.376Z,8.87
2023-04-27T07:23:43.812Z,9.13
2023-04-27T07:26:13.012Z,8.99
2023-04-27T07:28:41.362Z,9.07
2023-04-27T07:31:09.913Z,9.50
2023-04-27T07:33:38.553Z,9.40
2023-04-27T07:36:07.896Z,9.35
2023-04-27T07:38:38.442Z,9.36
2023-04-27T07:41:07.459Z,9.58
2023-04-27T07:43:36.522Z,9.31
2023-04-27T07:46:05.685Z,9.05
2023-04-27T07:48:34.096Z,9.16
2023-04-27T07:51:02.595Z,9.27
2023-04-27T07:53:31.216Z,9.40
2023-04-27T07:56:01.040Z,9.32
2023-04-27T07:58:29.378Z,9.58
2023-04-27T08:00:57.862Z,9.82
2023-04-27T08:03:26.368Z,10.06
2023-04-27T08:05:55.155Z,9.83
2023-04-27T08:08:24.001Z,9.85
2023-04-27T08:10:52.333Z,10.05
2023-04-27T08:13:24.313Z,10.07
2023-04-27T08:15:58.446Z,9.88
2023-04-27T08:18:27.219Z,9.64
2023-04-27T08:20:56.055Z,10.06
2023-04-27T08:23:24.818Z,9.94
2023-04-27T08:25:53.156Z,9.97
2023-04-27T08:28:23.219Z,10.13
2023-04-27T08:30:51.824Z,10.23
2023-04-27T08:33:20.345Z,10.06
2023-04-27T08:35:48.688Z,10.09
2023-04-27T08:38:16.954Z,9.97
2023-04-27T08:40:45.535Z,10.10
2023-04-27T08:43:13.882Z,10.42
2023-04-27T08:45:50.442Z,10.71
2023-04-27T08:48:20.279Z,10.36
2023-04-27T08:50:52.476Z,10.26
2023-04-27T08:53:22.240Z,10.38
2023-04-27T08:55:51.397Z,10.65
2023-04-27T08:58:19.808Z,10.74
2023-04-27T09:00:52.416Z,10.29
2023-04-27T09:03:24.486Z,10.25
2023-04-27T09:06:04.545Z,10.40
2023-04-27T09:08:45.510Z,10.47
2023-04-27T09:11:14.246Z,10.55
2023-04-27T09:13:45.304Z,10.72
2023-04-27T09:16:15.654Z,10.73
2023-04-27T09:18:45.429Z,10.47
2023-04-27T09:21:24.269Z,10.59
2023-04-27T09:23:53.091Z,10.35
2023-04-27T09:26:23.817Z,10.89
2023-04-27T09:28:52.882Z,10.98
2023-04-27T09:31:22.779Z,11.03
2023-04-27T09:33:57.273Z,10.85
2023-04-27T09:36:26.928Z,10.65
2023-04-27T09:38:55.656Z,10.88
2023-04-27T09:41:24.249Z,11.30
2023-04-27T09:43:57.064Z,11.41
2023-04-27T09:46:30.097Z,10.98
2023-04-27T09:48:59.572Z,11.04
2023-04-27T09:51:28.042Z,10.98
2023-04-27T09:54:01.549Z,11.55
2023-04-27T09:56:43.678Z,11.60
2023-04-27T09:59:34.480Z,11.39
2023-04-27T10:02:13.554Z,11.48
2023-04-27T10:05:29.019Z,11.57
2023-04-27T10:07:57.688Z,11.68
2023-04-27T10:10:26.496Z,11.72
2023-04-27T10:13:01.836Z,12.10
2023-04-27T10:15:32.087Z,12.06
2023-04-27T10:18:07.321Z,11.82
2023-04-27T10:20:38.695Z,11.78
2023-04-27T10:23:07.040Z,11.77
2023-04-27T10:25:41.427Z,11.50
2023-04-27T10:28:09.936Z,11.65
2023-04-27T10:30:40.097Z,12.09
2023-04-27T10:33:12.050Z,12.40
2023-04-27T10:35:42.318Z,12.31
2023-04-27T10:38:16.681Z,12.20
2023-04-27T10:40:47.189Z,12.49
2023-04-27T10:43:17.491Z,12.75
2023-04-27T10:45:46.637Z,12.76
2023-04-27T10:48:16.604Z,12.88
2023-04-27T10:50:46.805Z,12.81
2023-04-27T10:53:15.727Z,12.73
2023-04-27T10:55:44.160Z,13.29
2023-04-27T10:58:12.674Z,13.26
2023-04-27T11:00:44.334Z,12.65
2023-04-27T11:03:18.209Z,13.01
2023-04-27T11:05:49.077Z,12.00
2023-04-27T11:08:20.948Z,12.76
2023-04-27T11:10:51.006Z,12.86
2023-04-27T11:13:21.427Z,12.64
2023-04-27T11:15:51.959Z,12.91
2023-04-27T11:18:23.665Z,12.56
2023-04-27T11:20:55.975Z,13.15
2023-04-27T11:23:26.240Z,13.14
2023-04-27T11:25:55.131Z,12.84
2023-04-27T11:28:24.570Z,13.12
2023-04-27T11:30:59.023Z,13.12
2023-04-27T11:33:29.537Z,13.14
2023-04-27T11:35:58.244Z,12.99
2023-04-27T11:38:27.621Z,12.83
2023-04-27T11:41:05.528Z,12.87
2023-04-27T11:43:34.876Z,13.26
2023-04-27T11:46:05.974Z,12.94
2023-04-27T11:48:38.422Z,12.81
2023-04-27T11:51:07.841Z,13.08
2023-04-27T11:53:38.474Z,13.15
2023-04-27T11:56:11.108Z,12.82
2023-04-27T11:58:40.936Z,13.02
2023-04-27T12:01:12.054Z,13.15
2023-04-27T12:03:42.164Z,13.11
2023-04-27T12:06:28.071Z,13.04
2023-04-27T12:08:59.024Z,13.13
2023-04-27T12:11:28.893Z,12.88
2023-04-27T12:13:57.524Z,13.33
2023-04-27T12:16:25.958Z,13.08
2023-04-27T12:18:55.643Z,13.18
2023-04-27T12:21:23.976Z,13.38
2023-04-27T12:23:52.779Z,13.87
2023-04-27T12:26:21.482Z,13.92
2023-04-27T12:28:50.042Z,13.24
2023-04-27T12:31:24.102Z,13.72
2023-04-27T12:33:55.261Z,13.39
2023-04-27T12:36:23.670Z,13.29
2023-04-27T12:38:52.212Z,13.50
2023-04-27T12:41:20.597Z,13.05
2023-04-27T12:43:49.029Z,13.20
2023-04-27T12:46:18.332Z,13.72
2023-04-27T12:48:47.443Z,13.44
2023-04-27T12:51:17.127Z,13.39
2023-04-27T12:53:45.532Z,13.49
2023-04-27T12:56:13.830Z,13.60
2023-04-27T12:58:42.141Z,13.69
2023-04-27T13:01:14.868Z,14.18
2023-04-27T13:03:43.772Z,14.01
2023-04-27T13:06:12.427Z,13.50
2023-04-27T13:08:42.869Z,13.44
2023-04-27T13:11:11.570Z,13.16
2023-04-27T13:13:39.948Z,12.73
2023-04-27T13:16:08.690Z,12.97
2023-04-27T13:18:37.153Z,12.51
2023-04-27T13:21:06.713Z,13.09
2023-04-27T13:23:35.515Z,13.32
2023-04-27T13:26:06.969Z,13.17
2023-04-27T13:28:35.414Z,12.97
2023-04-27T13:31:04.050Z,12.99
2023-04-27T13:33:40.898Z,13.13
2023-04-27T13:36:09.832Z,13.28
2023-04-27T13:38:38.481Z,13.11
2023-04-27T13:41:08.860Z,13.15
2023-04-27T13:43:37.354Z,13.22
2023-04-27T13:46:07.571Z,13.35
2023-04-27T13:48:36.197Z,13.70
2023-04-27T13:51:04.651Z,13.42
2023-04-27T13:53:33.048Z,13.15
2023-04-27T13:56:01.344Z,13.29
2023-04-27T13:58:31.223Z,13.11
2023-04-27T14:00:59.743Z,13.09
2023-04-27T14:03:28.401Z,12.94
2023-04-27T14:05:57.147Z,13.21
2023-04-27T14:08:25.648Z,13.08
2023-04-27T14:10:54.218Z,13.10
2023-04-27T14:13:22.817Z,13.03
2023-04-27T14:15:52.554Z,13.22
2023-04-27T14:18:20.863Z,13.42
2023-04-27T14:20:49.312Z,13.32
2023-04-27T14:23:17.717Z,13.28
2023-04-27T14:25:46.390Z,13.02
2023-04-27T14:28:15.482Z,13.19
2023-04-27T14:30:43.927Z,13.51
2023-04-27T14:33:13.679Z,13.56
2023-04-27T14:35:42.155Z,13.88
2023-04-27T14:38:10.600Z,14.01
2023-04-27T14:40:38.991Z,14.13
2023-04-27T14:43:08.088Z,13.65
2023-04-27T14:45:50.228Z,12.90
2023-04-27T14:48:23.395Z,13.16
2023-04-27T14:50:51.639Z,13.07
2023-04-27T14:53:20.056Z,13.40
2023-04-27T14:55:48.546Z,13.20
2023-04-27T14:58:17.235Z,13.71
2023-04-27T15:00:45.715Z,13.64
2023-04-27T15:03:14.103Z,13.33
2023-04-27T15:05:44.041Z,13.35
2023-04-27T15:08:12.642Z,13.57
2023-04-27T15:10:41.059Z,13.78
2023-04-27T15:13:09.518Z,13.70
2023-04-27T15:15:37.886Z,13.19
2023-04-27T15:18:06.795Z,13.29
2023-04-27T15:20:35.262Z,13.31
2023-04-27T15:23:05.070Z,13.24
2023-04-27T15:25:33.509Z,12.97
2023-04-27T15:28:03.299Z,13.30
2023-04-27T15:30:31.598Z,13.02
2023-04-27T15:33:02.581Z,13.14
2023-04-27T15:35:32.436Z,13.12
2023-04-27T15:38:03.775Z,13.24
2023-04-27T15:40:34.166Z,13.52
2023-04-27T15:43:02.886Z,13.39
2023-04-27T15:45:31.829Z,13.33
2023-04-27T15:48:00.615Z,13.72
2023-04-27T15:50:28.968Z,13.52
2023-04-27T15:52:57.421Z,13.88
2023-04-27T15:55:25.913Z,13.70
2023-04-27T15:57:56.147Z,13.20
2023-04-27T16:00:24.833Z,13.43
2023-04-27T16:02:53.472Z,13.39
2023-04-27T16:05:22.135Z,13.23
2023-04-27T16:07:50.518Z,13.63
2023-04-27T16:10:18.896Z,13.07
2023-04-27T16:12:47.464Z,13.16
2023-04-27T16:15:17.386Z,13.14
2023-04-27T16:17:45.843Z,13.13
2023-04-27T16:20:14.384Z,13.22
2023-04-27T16:22:42.924Z,13.25
2023-04-27T16:25:12.008Z,12.93
2023-04-27T16:27:40.883Z,13.08
2023-04-27T16:30:10.490Z,13.10
2023-04-27T16:32:40.302Z,13.07
2023-04-27T16:35:09.601Z,13.24
2023-04-27T16:37:38.263Z,13.33
2023-04-27T16:40:08.585Z,13.11
2023-04-27T16:42:36.986Z,13.26
2023-04-27T16:45:09.187Z,13.08
2023-04-27T16:47:41.913Z,13.23
2023-04-27T16:50:11.749Z,13.35
2023-04-27T16:52:40.561Z,13.52
2023-04-27T16:55:09.633Z,12.86
2023-04-27T16:57:38.182Z,13.29
2023-04-27T17:00:09.670Z,13.18
2023-04-27T17:02:39.476Z,13.37
2023-04-27T17:05:11.954Z,13.28
2023-04-27T17:07:40.281Z,13.36
2023-04-27T17:10:09.942Z,13.51
2023-04-27T17:12:38.363Z,13.43
2023-04-27T17:15:08.733Z,13.32
2023-04-27T17:17:37.397Z,13.29
2023-04-27T17:20:09.256Z,13.34
2023-04-27T17:22:39.259Z,13.28
2023-04-27T17:25:09.212Z,13.24
2023-04-27T17:27:37.525Z,13.20
2023-04-27T17:30:08.235Z,13.19
2023-04-27T17:32:36.835Z,13.11
2023-04-27T17:35:05.635Z,13.10
2023-04-27T17:37:34.105Z,13.09
2023-04-27T17:40:04.346Z,13.03
2023-04-27T17:42:32.660Z,12.97
2023-04-27T17:45:01.102Z,12.98
2023-04-27T17:47:29.525Z,13.06
2023-04-27T17:49:57.976Z,12.96
2023-04-27T17:52:26.514Z,12.86
2023-04-27T17:54:55.688Z,12.86
2023-04-27T17:57:25.409Z,12.97
2023-04-27T18:00:05.699Z,12.78
2023-04-27T18:02:39.331Z,12.94
2023-04-27T18:05:08.728Z,12.98
2023-04-27T18:07:39.758Z,12.96
2023-04-27T18:10:10.101Z,12.58
2023-04-27T18:12:39.866Z,12.74
2023-04-27T18:15:10.077Z,12.91
2023-04-27T18:17:38.567Z,12.90
2023-04-27T18:20:10.103Z,13.01
2023-04-27T18:22:40.143Z,13.02
2023-04-27T18:25:10.877Z,12.90
2023-04-27T18:27:40.744Z,12.96
2023-04-27T18:30:09.841Z,13.08
2023-04-27T18:32:38.419Z,12.86
2023-04-27T18:35:07.830Z,12.87
2023-04-27T18:37:36.223Z,13.03
2023-04-27T18:40:05.847Z,12.95
2023-04-27T18:42:34.268Z,12.93
2023-04-27T18:45:04.011Z,12.88
2023-04-27T18:47:32.437Z,13.02
2023-04-27T18:50:00.778Z,12.83
2023-04-27T18:52:29.089Z,12.79
2023-04-27T18:54:57.375Z,12.83
2023-04-27T18:57:26.520Z,12.77
2023-04-27T18:59:54.873Z,12.73
2023-04-27T19:02:25.893Z,12.84
2023-04-27T19:05:10.905Z,12.77
2023-04-27T19:07:41.208Z,12.86
2023-04-27T19:10:11.232Z,12.84
2023-04-27T19:12:39.677Z,12.79
2023-04-27T19:15:08.705Z,12.66
2023-04-27T19:17:38.822Z,12.76
2023-04-27T19:20:09.242Z,12.82
2023-04-27T19:22:37.923Z,12.59
2023-04-27T19:25:07.428Z,12.79
2023-04-27T19:27:35.837Z,12.72
2023-04-27T19:30:04.327Z,12.73
2023-04-27T19:32:34.317Z,12.66
2023-04-27T19:35:04.756Z,12.91
2023-04-27T19:37:33.108Z,13.02
2023-04-27T19:40:01.492Z,12.99
2023-04-27T19:42:30.586Z,12.89
2023-04-27T19:44:58.964Z,12.61
2023-04-27T19:47:27.304Z,12.65
2023-04-27T19:49:58.379Z,12.83
2023-04-27T19:52:28.389Z,13.08
2023-04-27T19:54:57.702Z,12.94
2023-04-27T19:57:26.100Z,12.91
2023-04-27T19:59:54.481Z,12.88
2023-04-27T20:02:23.014Z,12.66
2023-04-27T20:04:51.937Z,12.65
2023-04-27T20:07:20.441Z,12.50
2023-04-27T20:09:50.225Z,12.28
2023-04-27T20:12:37.389Z,12.39
2023-04-27T20:15:09.132Z,12.33
2023-04-27T20:17:37.771Z,12.22
2023-04-27T20:20:10.436Z,12.17
2023-04-27T20:22:38.851Z,12.20
2023-04-27T20:25:09.982Z,12.07
2023-04-27T20:27:38.393Z,11.98
2023-04-27T20:30:08.601Z,11.96
2023-04-27T20:32:39.480Z,12.01
2023-04-27T20:35:11.146Z,11.92
2023-04-27T20:37:40.261Z,11.93
2023-04-27T20:40:14.609Z,12.00
2023-04-27T20:42:43.584Z,11.99
2023-04-27T20:45:13.142Z,12.06
2023-04-27T20:47:42.019Z,11.97
2023-04-27T20:50:10.797Z,11.85
2023-04-27T20:52:39.222Z,11.87
2023-04-27T20:55:09.967Z,11.85
2023-04-27T20:57:38.259Z,11.94
2023-04-27T21:00:09.961Z,11.95
2023-04-27T21:02:38.650Z,12.03
2023-04-27T21:05:07.207Z,11.92
2023-04-27T21:07:35.595Z,11.93
2023-04-27T21:10:06.820Z,11.96
2023-04-27T21:12:37.029Z,12.05
2023-04-27T21:15:06.310Z,12.28
2023-04-27T21:17:34.723Z,12.29
2023-04-27T21:20:03.389Z,12.27
2023-04-27T21:22:31.768Z,12.22
2023-04-27T21:25:00.182Z,12.09
2023-04-27T21:27:29.856Z,11.87
2023-04-27T21:29:59.926Z,12.00
2023-04-27T21:32:28.508Z,11.86
2023-04-27T21:34:56.819Z,11.85
2023-04-27T21:37:25.218Z,11.85
2023-04-27T21:39:53.645Z,11.62
2023-04-27T21:42:21.988Z,11.76
2023-04-27T21:44:50.409Z,11.79
2023-04-27T21:47:20.103Z,11.75
2023-04-27T21:49:49.355Z,11.74
2023-04-27T21:52:19.837Z,11.60
2023-04-27T21:54:48.219Z,11.43
2023-04-27T21:57:18.733Z,11.61
2023-04-27T21:59:48.339Z,11.54
2023-04-27T22:02:17.100Z,11.71
2023-04-27T22:04:47.809Z,11.53
2023-04-27T22:07:16.054Z,11.58
2023-04-27T22:09:44.586Z,11.55
2023-04-27T22:12:12.975Z,11.52
2023-04-27T22:14:41.883Z,11.61
2023-04-27T22:17:12.606Z,11.52
2023-04-27T22:19:41.563Z,11.50
2023-04-27T22:22:11.568Z,11.46
2023-04-27T22:24:39.913Z,11.57
2023-04-27T22:27:08.272Z,11.57
2023-04-27T22:29:36.604Z,11.58
2023-04-27T22:32:05.439Z,11.56
2023-04-27T22:34:34.126Z,11.45
2023-04-27T22:37:03.082Z,11.36
2023-04-27T22:39:33.330Z,11.46
2023-04-27T22:42:01.677Z,11.60
2023-04-27T22:44:30.335Z,11.47
2023-04-27T22:47:00.919Z,11.35
2023-04-27T22:49:29.666Z,11.61
2023-04-27T22:51:58.002Z,11.36
2023-04-27T22:54:26.390Z,11.29
2023-04-27T22:56:57.316Z,11.41
2023-04-27T22:59:25.705Z,11.41
2023-04-27T23:01:54.040Z,11.40
2023-04-27T23:04:23.235Z,11.51
2023-04-27T23:06:53.699Z,11.45
2023-04-27T23:09:22.672Z,11.35
2023-04-27T23:11:51.212Z,11.53
2023-04-27T23:14:20.964Z,11.35
2023-04-27T23:16:49.734Z,11.39
2023-04-27T23:19:18.191Z,11.45
2023-04-27T23:21:46.489Z,11.28
2023-04-27T23:24:14.982Z,11.27
2023-04-27T23:26:43.460Z,11.16
2023-04-27T23:29:11.809Z,11.24
2023-04-27T23:31:41.484Z,11.18
2023-04-27T23:34:09.803Z,11.24
2023-04-27T23:36:38.198Z,11.34
2023-04-27T23:39:06.486Z,11.35
2023-04-27T23:41:35.004Z,11.31
2023-04-27T23:44:03.311Z,11.25
2023-04-27T23:46:31.613Z,10.90
2023-04-27T23:49:01.462Z,11.04
2023-04-27T23:51:29.796Z,11.03
2023-04-27T23:53:58.245Z,11.06
2023-04-27T23:56:26.752Z,11.09
2023-04-27T23:58:55.113Z,10.97
